sensor_id;sensor_type;location;lat;lon;timestamp;pressure;altitude;pressure_sealevel;temperature;humidity
26823;BME280;14852;51.910;8.878;2022-11-30T00:01:32;100199.13;;;11.37;65.47
26823;BME280;14852;51.910;8.878;2022-11-30T00:03:58;100202.84;;;11.32;65.39
26823;BME280;14852;51.910;8.878;2022-11-30T00:06:24;100207.22;;;11.31;65.31
26823;BME280;14852;51.910;8.878;2022-11-30T00:08:55;100206.53;;;11.28;65.02
26823;BME280;14852;51.910;8.878;2022-11-30T00:11:23;100209.50;;;11.20;65.33
26823;BME280;14852;51.910;8.878;2022-11-30T00:13:49;100202.69;;;11.17;65.40
26823;BME280;14852;51.910;8.878;2022-11-30T00:16:15;100209.78;;;11.14;65.58
26823;BME280;14852;51.910;8.878;2022-11-30T00:18:41;100202.97;;;11.11;65.48
26823;BME280;14852;51.910;8.878;2022-11-30T00:21:11;100202.97;;;11.11;65.65
26823;BME280;14852;51.910;8.878;2022-11-30T00:23:41;100207.41;;;11.09;65.64
26823;BME280;14852;51.910;8.878;2022-11-30T00:26:11;100205.81;;;11.07;65.49
26823;BME280;14852;51.910;8.878;2022-11-30T00:28:37;100204.13;;;11.06;65.40
26823;BME280;14852;51.910;8.878;2022-11-30T00:31:11;100219.09;;;11.01;65.27
26823;BME280;14852;51.910;8.878;2022-11-30T00:33:37;100212.97;;;11.02;65.56
26823;BME280;14852;51.910;8.878;2022-11-30T00:36:07;100214.09;;;10.96;65.18
26823;BME280;14852;51.910;8.878;2022-11-30T00:38:34;100214.25;;;10.93;65.65
26823;BME280;14852;51.910;8.878;2022-11-30T00:41:00;100218.53;;;10.94;65.22
26823;BME280;14852;51.910;8.878;2022-11-30T00:43:27;100211.72;;;10.92;65.41
26823;BME280;14852;51.910;8.878;2022-11-30T00:45:53;100209.13;;;10.92;65.59
26823;BME280;14852;51.910;8.878;2022-11-30T00:48:19;100211.78;;;10.90;65.24
26823;BME280;14852;51.910;8.878;2022-11-30T00:50:48;100212.63;;;10.91;65.49
26823;BME280;14852;51.910;8.878;2022-11-30T00:53:14;100212.63;;;10.91;65.57
26823;BME280;14852;51.910;8.878;2022-11-30T00:55:41;100210.88;;;10.91;65.18
26823;BME280;14852;51.910;8.878;2022-11-30T00:58:07;100217.75;;;10.92;65.63
26823;BME280;14852;51.910;8.878;2022-11-30T01:00:33;100215.09;;;10.94;65.65
26823;BME280;14852;51.910;8.878;2022-11-30T01:02:59;100212.50;;;10.94;65.63
26823;BME280;14852;51.910;8.878;2022-11-30T01:05:25;100214.09;;;10.96;65.30
26823;BME280;14852;51.910;8.878;2022-11-30T01:07:51;100211.50;;;10.96;65.44
26823;BME280;14852;51.910;8.878;2022-11-30T01:10:17;100211.41;;;10.98;65.09
26823;BME280;14852;51.910;8.878;2022-11-30T01:12:43;100214.09;;;10.96;65.41
26823;BME280;14852;51.910;8.878;2022-11-30T01:15:09;100215.88;;;10.96;65.52
26823;BME280;14852;51.910;8.878;2022-11-30T01:17:35;100213.34;;;10.94;65.17
26823;BME280;14852;51.910;8.878;2022-11-30T01:20:01;100215.22;;;10.91;65.28
26823;BME280;14852;51.910;8.878;2022-11-30T01:22:26;100219.66;;;10.88;65.09
26823;BME280;14852;51.910;8.878;2022-11-30T01:24:53;100220.63;;;10.86;65.24
26823;BME280;14852;51.910;8.878;2022-11-30T01:27:19;100219.03;;;10.83;65.49
26823;BME280;14852;51.910;8.878;2022-11-30T01:29:45;100227.75;;;10.82;65.54
26823;BME280;14852;51.910;8.878;2022-11-30T01:32:10;100230.34;;;10.82;65.57
26823;BME280;14852;51.910;8.878;2022-11-30T01:34:36;100233.84;;;10.81;65.53
26823;BME280;14852;51.910;8.878;2022-11-30T01:37:02;100230.47;;;10.79;65.14
26823;BME280;14852;51.910;8.878;2022-11-30T01:39:28;100222.69;;;10.79;65.36
26823;BME280;14852;51.910;8.878;2022-11-30T01:41:53;100233.00;;;10.81;65.46
26823;BME280;14852;51.910;8.878;2022-11-30T01:47:04;100226.84;;;10.83;65.52
26823;BME280;14852;51.910;8.878;2022-11-30T01:49:35;100219.03;;;10.83;65.32
26823;BME280;14852;51.910;8.878;2022-11-30T01:54:47;100226.66;;;10.86;65.56
26823;BME280;14852;51.910;8.878;2022-11-30T01:57:28;100230.13;;;10.87;65.21
26823;BME280;14852;51.910;8.878;2022-11-30T02:00:00;100233.56;;;10.87;65.52
26823;BME280;14852;51.910;8.878;2022-11-30T02:02:36;100229.28;;;10.86;65.29
26823;BME280;14852;51.910;8.878;2022-11-30T02:05:05;100232.78;;;10.85;65.12
26823;BME280;14852;51.910;8.878;2022-11-30T02:07:31;100231.13;;;10.84;65.38
26823;BME280;14852;51.910;8.878;2022-11-30T02:09:57;100232.94;;;10.82;65.31
26823;BME280;14852;51.910;8.878;2022-11-30T02:12:44;100223.47;;;10.81;65.36
26823;BME280;14852;51.910;8.878;2022-11-30T02:15:18;100229.63;;;10.79;65.35
26823;BME280;14852;51.910;8.878;2022-11-30T02:18:01;100227.09;;;10.77;65.38
26823;BME280;14852;51.910;8.878;2022-11-30T02:23:55;100232.44;;;10.74;65.37
26823;BME280;14852;51.910;8.878;2022-11-30T02:29:53;100231.75;;;10.71;65.54
26823;BME280;14852;51.910;8.878;2022-11-30T02:32:31;100234.28;;;10.72;65.56
26823;BME280;14852;51.910;8.878;2022-11-30T02:35:01;100234.41;;;10.69;65.22
26823;BME280;14852;51.910;8.878;2022-11-30T02:37:29;100226.63;;;10.69;65.42
26823;BME280;14852;51.910;8.878;2022-11-30T02:39:57;100235.31;;;10.68;65.69
26823;BME280;14852;51.910;8.878;2022-11-30T02:42:23;100236.22;;;10.67;65.32
26823;BME280;14852;51.910;8.878;2022-11-30T02:44:51;100231.88;;;10.68;65.45
26823;BME280;14852;51.910;8.878;2022-11-30T02:47:30;100226.63;;;10.69;65.46
26823;BME280;14852;51.910;8.878;2022-11-30T02:50:25;100230.91;;;10.70;65.43
26823;BME280;14852;51.910;8.878;2022-11-30T02:52:53;100234.47;;;10.68;65.42
26823;BME280;14852;51.910;8.878;2022-11-30T02:55:20;100232.78;;;10.67;65.38
26823;BME280;14852;51.910;8.878;2022-11-30T02:57:46;100232.72;;;10.68;65.70
26823;BME280;14852;51.910;8.878;2022-11-30T03:00:14;100235.25;;;10.70;65.47
26823;BME280;14852;51.910;8.878;2022-11-30T03:02:40;100235.25;;;10.70;65.05
26823;BME280;14852;51.910;8.878;2022-11-30T03:05:07;100235.31;;;10.68;65.36
26823;BME280;14852;51.910;8.878;2022-11-30T03:07:33;100235.31;;;10.68;65.49
26823;BME280;14852;51.910;8.878;2022-11-30T03:09:59;100244.88;;;10.68;65.37
26823;BME280;14852;51.910;8.878;2022-11-30T03:12:25;100247.47;;;10.68;65.37
26823;BME280;14852;51.910;8.878;2022-11-30T03:14:51;100248.31;;;10.68;65.50
26823;BME280;14852;51.910;8.878;2022-11-30T03:17:17;100249.22;;;10.67;65.52
26823;BME280;14852;51.910;8.878;2022-11-30T03:19:42;100249.22;;;10.67;65.33
26823;BME280;14852;51.910;8.878;2022-11-30T03:22:08;100244.94;;;10.66;65.44
26823;BME280;14852;51.910;8.878;2022-11-30T03:24:34;100253.56;;;10.67;65.55
26823;BME280;14852;51.910;8.878;2022-11-30T03:27:00;100251.88;;;10.66;65.27
26823;BME280;14852;51.910;8.878;2022-11-30T03:29:26;100249.28;;;10.66;65.30
26823;BME280;14852;51.910;8.878;2022-11-30T03:31:52;100244.09;;;10.66;65.62
26823;BME280;14852;51.910;8.878;2022-11-30T03:34:18;100249.22;;;10.67;65.41
26823;BME280;14852;51.910;8.878;2022-11-30T03:36:43;100243.19;;;10.67;65.29
26823;BME280;14852;51.910;8.878;2022-11-30T03:39:10;100244.88;;;10.68;65.38
26823;BME280;14852;51.910;8.878;2022-11-30T03:41:36;100246.69;;;10.66;65.64
26823;BME280;14852;51.910;8.878;2022-11-30T03:44:01;100244.09;;;10.66;65.63
26823;BME280;14852;51.910;8.878;2022-11-30T03:46:27;100249.28;;;10.66;65.45
26823;BME280;14852;51.910;8.878;2022-11-30T03:48:53;100251.88;;;10.66;65.35
26823;BME280;14852;51.910;8.878;2022-11-30T03:51:19;100249.28;;;10.66;65.57
26823;BME280;14852;51.910;8.878;2022-11-30T03:53:45;100250.97;;;10.67;65.44
26823;BME280;14852;51.910;8.878;2022-11-30T03:56:11;100250.13;;;10.66;65.72
26823;BME280;14852;51.910;8.878;2022-11-30T03:58:38;100245.78;;;10.67;65.46
26823;BME280;14852;51.910;8.878;2022-11-30T04:01:12;100247.47;;;10.68;65.11
26823;BME280;14852;51.910;8.878;2022-11-30T04:03:39;100248.44;;;10.65;65.19
26823;BME280;14852;51.910;8.878;2022-11-30T04:06:06;100258.91;;;10.64;65.38
26823;BME280;14852;51.910;8.878;2022-11-30T04:08:33;100258.97;;;10.62;65.39
26823;BME280;14852;51.910;8.878;2022-11-30T04:11:00;100252.88;;;10.63;65.50
26823;BME280;14852;51.910;8.878;2022-11-30T04:13:28;100260.66;;;10.63;65.56
26823;BME280;14852;51.910;8.878;2022-11-30T04:15:55;100259.81;;;10.63;65.07
26823;BME280;14852;51.910;8.878;2022-11-30T04:18:22;100264.16;;;10.62;65.30
26823;BME280;14852;51.910;8.878;2022-11-30T04:20:51;100259.97;;;10.60;65.62
26823;BME280;14852;51.910;8.878;2022-11-30T04:23:17;100258.28;;;10.59;65.13
26823;BME280;14852;51.910;8.878;2022-11-30T04:25:43;100256.59;;;10.58;65.47
26823;BME280;14852;51.910;8.878;2022-11-30T04:28:09;100262.56;;;10.60;65.47
26823;BME280;14852;51.910;8.878;2022-11-30T04:30:36;100263.47;;;10.59;65.51
26823;BME280;14852;51.910;8.878;2022-11-30T04:33:02;100267.97;;;10.55;65.48
26823;BME280;14852;51.910;8.878;2022-11-30T04:35:28;100266.25;;;10.54;65.41
26823;BME280;14852;51.910;8.878;2022-11-30T04:37:54;100265.47;;;10.52;65.11
26823;BME280;14852;51.910;8.878;2022-11-30T04:40:20;100270.75;;;10.50;65.38
26823;BME280;14852;51.910;8.878;2022-11-30T04:42:46;100257.97;;;10.46;65.25
26823;BME280;14852;51.910;8.878;2022-11-30T04:45:12;100268.38;;;10.46;65.68
26823;BME280;14852;51.910;8.878;2022-11-30T04:47:38;100269.22;;;10.46;65.29
26823;BME280;14852;51.910;8.878;2022-11-30T04:50:06;100270.97;;;10.46;65.69
26823;BME280;14852;51.910;8.878;2022-11-30T04:52:32;100263.16;;;10.46;65.43
26823;BME280;14852;51.910;8.878;2022-11-30T04:54:58;100264.09;;;10.45;65.38
26823;BME280;14852;51.910;8.878;2022-11-30T04:57:24;100267.66;;;10.42;65.36
26823;BME280;14852;51.910;8.878;2022-11-30T04:59:50;100264.22;;;10.42;65.60
26823;BME280;14852;51.910;8.878;2022-11-30T05:02:16;100266.81;;;10.42;65.57
26823;BME280;14852;51.910;8.878;2022-11-30T05:04:41;100266.88;;;10.40;65.34
26823;BME280;14852;51.910;8.878;2022-11-30T05:07:07;100265.19;;;10.39;65.48
26823;BME280;14852;51.910;8.878;2022-11-30T05:09:33;100270.53;;;10.36;65.60
26823;BME280;14852;51.910;8.878;2022-11-30T05:11:59;100266.25;;;10.35;65.64
26823;BME280;14852;51.910;8.878;2022-11-30T05:14:25;100271.38;;;10.37;65.61
26823;BME280;14852;51.910;8.878;2022-11-30T05:16:51;100271.44;;;10.35;65.67
26823;BME280;14852;51.910;8.878;2022-11-30T05:19:16;100281.81;;;10.35;65.49
26823;BME280;14852;51.910;8.878;2022-11-30T05:21:43;100271.44;;;10.35;65.70
26823;BME280;14852;51.910;8.878;2022-11-30T05:24:09;100273.13;;;10.36;65.43
26823;BME280;14852;51.910;8.878;2022-11-30T05:26:35;100282.66;;;10.36;65.63
26823;BME280;14852;51.910;8.878;2022-11-30T05:29:05;100287.81;;;10.37;65.80
26823;BME280;14852;51.910;8.878;2022-11-30T05:31:31;100282.72;;;10.34;65.70
26823;BME280;14852;51.910;8.878;2022-11-30T05:33:57;100288.78;;;10.35;65.73
26823;BME280;14852;51.910;8.878;2022-11-30T05:36:22;100288.78;;;10.35;65.88
26823;BME280;14852;51.910;8.878;2022-11-30T05:38:48;100297.41;;;10.35;65.71
26823;BME280;14852;51.910;8.878;2022-11-30T05:41:14;100286.22;;;10.33;65.74
26823;BME280;14852;51.910;8.878;2022-11-30T05:43:40;100296.63;;;10.33;65.94
26823;BME280;14852;51.910;8.878;2022-11-30T05:46:08;100297.41;;;10.35;65.76
26823;BME280;14852;51.910;8.878;2022-11-30T05:48:35;100294.81;;;10.35;65.74
26823;BME280;14852;51.910;8.878;2022-11-30T05:51:16;100300.69;;;10.39;65.69
26823;BME280;14852;51.910;8.878;2022-11-30T05:53:43;100304.22;;;10.38;65.64
26823;BME280;14852;51.910;8.878;2022-11-30T05:56:16;100305.16;;;10.37;65.86
26823;BME280;14852;51.910;8.878;2022-11-30T05:58:43;100306.03;;;10.36;65.55
26823;BME280;14852;51.910;8.878;2022-11-30T06:01:27;100305.16;;;10.37;65.44
26823;BME280;14852;51.910;8.878;2022-11-30T06:03:54;100306.22;;;10.31;65.94
26823;BME280;14852;51.910;8.878;2022-11-30T06:06:21;100310.53;;;10.32;65.99
26823;BME280;14852;51.910;8.878;2022-11-30T06:08:48;100310.53;;;10.32;65.85
26823;BME280;14852;51.910;8.878;2022-11-30T06:11:15;100309.69;;;10.32;65.61
26823;BME280;14852;51.910;8.878;2022-11-30T06:13:41;100313.19;;;10.31;65.56
26823;BME280;14852;51.910;8.878;2022-11-30T06:16:07;100309.72;;;10.30;65.69
26823;BME280;14852;51.910;8.878;2022-11-30T06:18:35;100314.81;;;10.33;65.66
26823;BME280;14852;51.910;8.878;2022-11-30T06:21:07;100311.19;;;10.37;65.78
26823;BME280;14852;51.910;8.878;2022-11-30T06:23:33;100318.97;;;10.37;65.69
26823;BME280;14852;51.910;8.878;2022-11-30T06:26:08;100316.22;;;10.40;65.57
26823;BME280;14852;51.910;8.878;2022-11-30T06:28:34;100324.06;;;10.39;65.92
26823;BME280;14852;51.910;8.878;2022-11-30T06:31:03;100321.47;;;10.39;65.40
26823;BME280;14852;51.910;8.878;2022-11-30T06:33:29;100330.13;;;10.39;65.48
26823;BME280;14852;51.910;8.878;2022-11-30T06:35:55;100339.59;;;10.40;65.91
26823;BME280;14852;51.910;8.878;2022-11-30T06:38:21;100335.31;;;10.39;65.56
26823;BME280;14852;51.910;8.878;2022-11-30T06:40:48;100335.31;;;10.39;65.85
26823;BME280;14852;51.910;8.878;2022-11-30T06:43:14;100333.56;;;10.40;65.76
26823;BME280;14852;51.910;8.878;2022-11-30T06:45:43;100335.19;;;10.42;65.59
26823;BME280;14852;51.910;8.878;2022-11-30T06:48:13;100335.19;;;10.42;65.84
26823;BME280;14852;51.910;8.878;2022-11-30T06:50:38;100340.38;;;10.42;65.61
26823;BME280;14852;51.910;8.878;2022-11-30T06:53:04;100336.09;;;10.41;65.63
26823;BME280;14852;51.910;8.878;2022-11-30T06:55:30;100336.94;;;10.42;65.45
26823;BME280;14852;51.910;8.878;2022-11-30T06:58:09;100343.81;;;10.43;65.67
26823;BME280;14852;51.910;8.878;2022-11-30T07:00:36;100341.34;;;10.40;65.56
26823;BME280;14852;51.910;8.878;2022-11-30T07:03:03;100344.78;;;10.40;65.88
26823;BME280;14852;51.910;8.878;2022-11-30T07:05:33;100345.78;;;10.38;65.77
26823;BME280;14852;51.910;8.878;2022-11-30T07:08:04;100354.34;;;10.40;65.64
26823;BME280;14852;51.910;8.878;2022-11-30T07:10:30;100351.69;;;10.41;65.70
26823;BME280;14852;51.910;8.878;2022-11-30T07:12:55;100353.38;;;10.42;65.57
26823;BME280;14852;51.910;8.878;2022-11-30T07:15:21;100355.06;;;10.43;65.80
26823;BME280;14852;51.910;8.878;2022-11-30T07:17:47;100350.72;;;10.44;65.77
26823;BME280;14852;51.910;8.878;2022-11-30T07:20:13;100350.72;;;10.44;65.59
26823;BME280;14852;51.910;8.878;2022-11-30T07:22:39;100352.41;;;10.45;65.87
26823;BME280;14852;51.910;8.878;2022-11-30T07:25:05;100355.91;;;10.44;65.96
26823;BME280;14852;51.910;8.878;2022-11-30T07:27:49;100357.66;;;10.43;66.01
26823;BME280;14852;51.910;8.878;2022-11-30T07:30:15;100358.50;;;10.44;65.99
26823;BME280;14852;51.910;8.878;2022-11-30T07:32:41;100355.84;;;10.45;65.89
26823;BME280;14852;51.910;8.878;2022-11-30T07:35:07;100364.50;;;10.46;65.60
26823;BME280;14852;51.910;8.878;2022-11-30T07:37:33;100359.34;;;10.44;65.61
26823;BME280;14852;51.910;8.878;2022-11-30T07:39:59;100361.91;;;10.46;65.81
26823;BME280;14852;51.910;8.878;2022-11-30T07:42:24;100368.00;;;10.45;65.76
26823;BME280;14852;51.910;8.878;2022-11-30T07:44:51;100368.06;;;10.43;65.83
26823;BME280;14852;51.910;8.878;2022-11-30T07:47:17;100366.31;;;10.44;65.61
26823;BME280;14852;51.910;8.878;2022-11-30T07:49:43;100367.16;;;10.44;65.60
26823;BME280;14852;51.910;8.878;2022-11-30T07:52:09;100370.59;;;10.45;65.80
26823;BME280;14852;51.910;8.878;2022-11-30T07:54:34;100372.34;;;10.44;65.97
26823;BME280;14852;51.910;8.878;2022-11-30T07:57:01;100371.50;;;10.44;65.62
26823;BME280;14852;51.910;8.878;2022-11-30T07:59:27;100374.94;;;10.44;66.06
26823;BME280;14852;51.910;8.878;2022-11-30T08:01:53;100372.41;;;10.43;65.71
26823;BME280;14852;51.910;8.878;2022-11-30T08:04:19;100370.72;;;10.42;65.75
26823;BME280;14852;51.910;8.878;2022-11-30T08:06:44;100373.31;;;10.42;65.82
26823;BME280;14852;51.910;8.878;2022-11-30T08:09:11;100380.19;;;10.43;65.61
26823;BME280;14852;51.910;8.878;2022-11-30T08:11:37;100379.34;;;10.42;65.74
26823;BME280;14852;51.910;8.878;2022-11-30T08:14:03;100376.69;;;10.44;65.80
26823;BME280;14852;51.910;8.878;2022-11-30T08:16:34;100384.44;;;10.45;65.61
26823;BME280;14852;51.910;8.878;2022-11-30T08:19:00;100383.59;;;10.45;65.78
26823;BME280;14852;51.910;8.878;2022-11-30T08:21:26;100385.22;;;10.47;65.78
26823;BME280;14852;51.910;8.878;2022-11-30T08:23:56;100395.47;;;10.50;65.91
26823;BME280;14852;51.910;8.878;2022-11-30T08:26:28;100392.75;;;10.53;65.68
26823;BME280;14852;51.910;8.878;2022-11-30T08:28:56;100396.19;;;10.54;65.69
26823;BME280;14852;51.910;8.878;2022-11-30T08:31:28;100390.03;;;10.57;65.40
26823;BME280;14852;51.910;8.878;2022-11-30T08:34:02;100399.44;;;10.59;65.52
26823;BME280;14852;51.910;8.878;2022-11-30T08:36:29;100397.88;;;10.55;65.56
26823;BME280;14852;51.910;8.878;2022-11-30T08:39:00;100396.91;;;10.58;65.83
26823;BME280;14852;51.910;8.878;2022-11-30T08:41:27;100396.13;;;10.56;65.58
26823;BME280;14852;51.910;8.878;2022-11-30T08:43:53;100396.91;;;10.58;65.64
26823;BME280;14852;51.910;8.878;2022-11-30T08:46:21;100399.50;;;10.58;65.48
26823;BME280;14852;51.910;8.878;2022-11-30T08:48:48;100402.94;;;10.58;65.70
26823;BME280;14852;51.910;8.878;2022-11-30T08:51:16;100407.25;;;10.59;65.86
26823;BME280;14852;51.910;8.878;2022-11-30T08:53:43;100411.53;;;10.60;65.85
26823;BME280;14852;51.910;8.878;2022-11-30T08:56:20;100413.13;;;10.63;65.47
26823;BME280;14852;51.910;8.878;2022-11-30T08:58:48;100414.88;;;10.62;65.63
26823;BME280;14852;51.910;8.878;2022-11-30T09:01:18;100421.84;;;10.62;65.52
26823;BME280;14852;51.910;8.878;2022-11-30T09:03:46;100418.44;;;10.61;65.43
26823;BME280;14852;51.910;8.878;2022-11-30T09:06:28;100423.41;;;10.66;65.42
26823;BME280;14852;51.910;8.878;2022-11-30T09:08:56;100422.63;;;10.64;65.39
26823;BME280;14852;51.910;8.878;2022-11-30T09:11:29;100431.16;;;10.67;65.66
26823;BME280;14852;51.910;8.878;2022-11-30T09:13:59;100430.19;;;10.70;65.63
26823;BME280;14852;51.910;8.878;2022-11-30T09:16:26;100431.09;;;10.69;65.56
26823;BME280;14852;51.910;8.878;2022-11-30T09:18:52;100431.94;;;10.69;65.31
26823;BME280;14852;51.910;8.878;2022-11-30T09:21:22;100430.19;;;10.70;65.55
26823;BME280;14852;51.910;8.878;2022-11-30T09:23:49;100425.88;;;10.69;65.54
26823;BME280;14852;51.910;8.878;2022-11-30T09:26:18;100430.19;;;10.70;65.60
26823;BME280;14852;51.910;8.878;2022-11-30T09:28:46;100437.91;;;10.71;65.40
26823;BME280;14852;51.910;8.878;2022-11-30T09:31:30;100435.16;;;10.74;65.53
26823;BME280;14852;51.910;8.878;2022-11-30T09:33:56;100440.38;;;10.74;65.37
26823;BME280;14852;51.910;8.878;2022-11-30T09:36:24;100432.50;;;10.76;65.48
26823;BME280;14852;51.910;8.878;2022-11-30T09:38:53;100434.19;;;10.77;65.65
26823;BME280;14852;51.910;8.878;2022-11-30T09:47:58;100435.72;;;10.82;65.36
26823;BME280;14852;51.910;8.878;2022-11-30T09:50:33;100439.28;;;10.80;65.45
26823;BME280;14852;51.910;8.878;2022-11-30T09:53:07;100435.81;;;10.79;65.65
26823;BME280;14852;51.910;8.878;2022-11-30T09:55:39;100440.97;;;10.81;65.44
26823;BME280;14852;51.910;8.878;2022-11-30T09:58:28;100437.31;;;10.85;65.51
26823;BME280;14852;51.910;8.878;2022-11-30T10:00:58;100441.59;;;10.86;65.54
26823;BME280;14852;51.910;8.878;2022-11-30T10:03:24;100448.50;;;10.87;65.31
26823;BME280;14852;51.910;8.878;2022-11-30T10:06:05;100443.22;;;10.88;65.48
26823;BME280;14852;51.910;8.878;2022-11-30T10:09:04;100443.09;;;10.92;65.46
26823;BME280;14852;51.910;8.878;2022-11-30T10:11:58;100443.94;;;10.92;65.48
26823;BME280;14852;51.910;8.878;2022-11-30T10:14:54;100437.91;;;10.92;65.41
26823;BME280;14852;51.910;8.878;2022-11-30T10:17:51;100441.28;;;10.94;65.21
26823;BME280;14852;51.910;8.878;2022-11-30T10:20:44;100430.84;;;10.95;65.46
26823;BME280;14852;51.910;8.878;2022-11-30T10:23:28;100429.84;;;10.98;65.35
26823;BME280;14852;51.910;8.878;2022-11-30T10:26:08;100428.00;;;11.00;65.28
26823;BME280;14852;51.910;8.878;2022-11-30T10:28:53;100428.00;;;11.00;65.25
26823;BME280;14852;51.910;8.878;2022-11-30T10:31:27;100429.63;;;11.02;65.18
26823;BME280;14852;51.910;8.878;2022-11-30T10:33:53;100426.84;;;11.07;65.14
26823;BME280;14852;51.910;8.878;2022-11-30T10:36:27;100426.91;;;11.05;65.02
26823;BME280;14852;51.910;8.878;2022-11-30T10:39:00;100422.56;;;11.06;65.00
26823;BME280;14852;51.910;8.878;2022-11-30T10:41:47;100426.84;;;11.07;65.31
26823;BME280;14852;51.910;8.878;2022-11-30T10:44:44;100421.66;;;11.07;65.25
26823;BME280;14852;51.910;8.878;2022-11-30T10:47:21;100419.25;;;11.02;65.17
26823;BME280;14852;51.910;8.878;2022-11-30T10:49:50;100417.59;;;11.00;65.24
26823;BME280;14852;51.910;8.878;2022-11-30T10:52:30;100427.88;;;11.03;65.51
26823;BME280;14852;51.910;8.878;2022-11-30T10:54:59;100428.00;;;11.00;65.17
26823;BME280;14852;51.910;8.878;2022-11-30T10:57:30;100427.88;;;11.03;65.26
26823;BME280;14852;51.910;8.878;2022-11-30T10:59:58;100421.78;;;11.04;65.43
26823;BME280;14852;51.910;8.878;2022-11-30T11:02:46;100425.09;;;11.07;65.32
26823;BME280;14852;51.910;8.878;2022-11-30T11:07:54;100426.75;;;11.08;65.25
26823;BME280;14852;51.910;8.878;2022-11-30T11:10:35;100420.59;;;11.11;65.25
26823;BME280;14852;51.910;8.878;2022-11-30T11:13:17;100425.00;;;11.09;65.01
26823;BME280;14852;51.910;8.878;2022-11-30T11:15:58;100428.66;;;11.05;65.35
26823;BME280;14852;51.910;8.878;2022-11-30T11:18:28;100426.13;;;11.03;65.12
26823;BME280;14852;51.910;8.878;2022-11-30T11:21:16;100423.53;;;11.03;65.11
26823;BME280;14852;51.910;8.878;2022-11-30T11:23:44;100429.63;;;11.02;65.23
26823;BME280;14852;51.910;8.878;2022-11-30T11:26:24;100433.03;;;11.04;65.41
26823;BME280;14852;51.910;8.878;2022-11-30T11:28:54;100436.59;;;11.02;65.42
26823;BME280;14852;51.910;8.878;2022-11-30T11:31:43;100435.56;;;11.06;65.51
26823;BME280;14852;51.910;8.878;2022-11-30T11:34:32;100438.09;;;11.07;65.38
26823;BME280;14852;51.910;8.878;2022-11-30T11:37:27;100439.97;;;11.04;64.94
26823;BME280;14852;51.910;8.878;2022-11-30T11:40:15;100443.63;;;11.00;65.02
26823;BME280;14852;51.910;8.878;2022-11-30T11:42:51;100444.88;;;10.91;65.17
26823;BME280;14852;51.910;8.878;2022-11-30T11:45:20;100440.75;;;10.85;65.63
26823;BME280;14852;51.910;8.878;2022-11-30T11:47:47;100444.34;;;10.83;65.62
26823;BME280;14852;51.910;8.878;2022-11-30T11:50:31;100436.56;;;10.83;65.68
26823;BME280;14852;51.910;8.878;2022-11-30T11:53:23;100440.69;;;10.87;65.63
26823;BME280;14852;51.910;8.878;2022-11-30T11:56:09;100432.97;;;10.85;65.20
26823;BME280;14852;51.910;8.878;2022-11-30T12:07:50;100437.59;;;10.79;65.26
26823;BME280;14852;51.910;8.878;2022-11-30T12:16:15;100449.78;;;10.77;65.54
26823;BME280;14852;51.910;8.878;2022-11-30T12:18:59;100448.94;;;10.76;65.65
26823;BME280;14852;51.910;8.878;2022-11-30T12:24:54;100458.19;;;10.83;65.47
26823;BME280;14852;51.910;8.878;2022-11-30T12:36:32;100458.31;;;10.80;65.43
26823;BME280;14852;51.910;8.878;2022-11-30T12:42:14;100452.50;;;10.74;65.36
26823;BME280;14852;51.910;8.878;2022-11-30T12:44:55;100458.81;;;10.68;65.67
26823;BME280;14852;51.910;8.878;2022-11-30T12:50:37;100450.25;;;10.66;65.65
26823;BME280;14852;51.910;8.878;2022-11-30T12:56:29;100451.41;;;10.59;65.95
26823;BME280;14852;51.910;8.878;2022-11-30T12:59:08;100449.78;;;10.57;65.59
26823;BME280;14852;51.910;8.878;2022-11-30T13:05:19;100458.66;;;10.51;65.71
26823;BME280;14852;51.910;8.878;2022-11-30T13:08:04;100460.63;;;10.46;65.79
26823;BME280;14852;51.910;8.878;2022-11-30T13:10:50;100457.19;;;10.45;65.53
26823;BME280;14852;51.910;8.878;2022-11-30T13:13:29;100468.53;;;10.43;65.80
26823;BME280;14852;51.910;8.878;2022-11-30T13:15:58;100465.16;;;10.41;65.82
26823;BME280;14852;51.910;8.878;2022-11-30T13:18:26;100466.00;;;10.41;65.93
26823;BME280;14852;51.910;8.878;2022-11-30T13:21:31;100465.09;;;10.42;65.82
26823;BME280;14852;51.910;8.878;2022-11-30T13:24:26;100465.09;;;10.42;65.67
26823;BME280;14852;51.910;8.878;2022-11-30T13:27:15;100465.94;;;10.43;65.80
26823;BME280;14852;51.910;8.878;2022-11-30T13:30:08;100465.88;;;10.44;66.01
26823;BME280;14852;51.910;8.878;2022-11-30T13:32:37;100472.09;;;10.40;65.95
26823;BME280;14852;51.910;8.878;2022-11-30T13:38:19;100470.28;;;10.42;65.80
26823;BME280;14852;51.910;8.878;2022-11-30T13:41:00;100472.88;;;10.42;65.78
26823;BME280;14852;51.910;8.878;2022-11-30T13:43:44;100469.44;;;10.42;65.83
26823;BME280;14852;51.910;8.878;2022-11-30T13:48:42;100478.06;;;10.42;65.87
26823;BME280;14852;51.910;8.878;2022-11-30T13:51:09;100470.28;;;10.42;65.68
26823;BME280;14852;51.910;8.878;2022-11-30T13:53:37;100472.88;;;10.42;66.10
26823;BME280;14852;51.910;8.878;2022-11-30T13:58:33;100472.09;;;10.40;65.77
26823;BME280;14852;51.910;8.878;2022-11-30T14:01:27;100471.25;;;10.40;65.96
26823;BME280;14852;51.910;8.878;2022-11-30T14:04:29;100471.25;;;10.40;66.02
26823;BME280;14852;51.910;8.878;2022-11-30T14:06:56;100483.59;;;10.35;65.91
26823;BME280;14852;51.910;8.878;2022-11-30T14:15:00;100487.09;;;10.34;66.18
26823;BME280;14852;51.910;8.878;2022-11-30T14:17:29;100489.75;;;10.32;66.15
26823;BME280;14852;51.910;8.878;2022-11-30T14:20:15;100487.16;;;10.32;65.88
26823;BME280;14852;51.910;8.878;2022-11-30T14:22:43;100486.41;;;10.29;66.14
26823;BME280;14852;51.910;8.878;2022-11-30T14:25:15;100483.81;;;10.29;66.17